Historique des mesures à Cassis (13260), France
Quotidien Résumé Fevrier 7, 2018 Unités:  Métrique    US   Métrique/US
« Précédent (Jour)
Suivant (Jour) »
Quotidien Hebdomadaire Mensuel Annuel Période au choix
  Maximum: Minimum: Moyenne:
Température: TemperatureC °C 3.1 °C 4.7 °C
Point de rosée: DewpointC °C -3.7 °C -0.7 °C
Humidité: Humidity % 58 % 65 %
Vitesse du vent: 0 km/h 0 km/h 23.2 km/h
Rafales: 0 km/h - -
Vent:- - West
Pression: PressurehPa hPa 1001.6 hPa -
Précipitations: 0.0 mm    
Historical Graphs
 
 
Mesures pour : Fevrier 7, 2018
Heure Temperature Point de rosée Pression Vent Vitesse du vent Rafales Humidité Pluie (par heure) Conditions
TemperatureC °C DewpointC °C PressurehPa hPa Calm     Humidity % HourlyPrecipMM mm SoftwareType W/m2
00:12 7.1 °C 3.7 °C 1002.9 hPa NW 26.7 km/h 26.7 km/h 79 % 0.0 mm open2300-1.11 W/m2
01:12 7.2 °C 3.8 °C 1002.6 hPa Calm   4.7 km/h 79 % 0.0 mm open2300-1.11 W/m2
02:12 5.9 °C 2.5 °C 1002.9 hPa NNW 12.2 km/h 12.2 km/h 79 % 0.0 mm open2300-1.11 W/m2
03:12 5.4 °C 2.0 °C 1002.6 hPa WNW 18.7 km/h 18.7 km/h 79 % 0.0 mm open2300-1.11 W/m2
04:12 4.7 °C 1.6 °C 1002.3 hPa NNW 23.8 km/h 24.8 km/h 80 % 0.0 mm open2300-1.11 W/m2
05:12 4.4 °C 1.1 °C 1001.9 hPa WNW 4.7 km/h 31.4 km/h 79 % 0.0 mm open2300-1.11 W/m2
06:12 3.8 °C 0.3 °C 1001.6 hPa WNW 24.8 km/h 37 km/h 78 % 0.0 mm open2300-1.11 W/m2
07:12 3.4 °C -0.4 °C 1002.3 hPa NNW 14.5 km/h 37 km/h 76 % 0.0 mm open2300-1.11 W/m2
08:12 3.3 °C -1.3 °C 1002.9 hPa WNW 14 km/h 22.5 km/h 72 % 0.0 mm open2300-1.11 W/m2
09:12 3.5 °C -1.7 °C 1003.3 hPa NNW 19.2 km/h 27.7 km/h 69 % 0.0 mm open2300-1.11 W/m2
10:12 4.1 °C -1.7 °C 1003.3 hPa NW 23 km/h 54.4 km/h 66 % 0.0 mm open2300-1.11 W/m2
11:12 5.1 °C -1.2 °C 1003.9 hPa NNW 23 km/h 36 km/h 64 % 0.0 mm open2300-1.11 W/m2
12:12 6.1 °C -0.9 °C 1004.6 hPa North 23 km/h 37.5 km/h 61 % 0.0 mm open2300-1.11 W/m2
13:12 6.6 °C -0.8 °C 1004.6 hPa NNW 29.5 km/h 29.5 km/h 59 % 0.0 mm open2300-1.11 W/m2
14:12 6.9 °C -0.8 °C 1004.3 hPa NW 49.2 km/h 49.2 km/h 58 % 0.0 mm open2300-1.11 W/m2
15:12 6.7 °C -1.0 °C 1004.6 hPa NNW 20.9 km/h 30.7 km/h 58 % 0.0 mm open2300-1.11 W/m2
16:12 6.1 °C -1.3 °C 1005.0 hPa North 41.2 km/h 80.5 km/h 59 % 0.0 mm open2300-1.11 W/m2
17:12 5.5 °C -1.7 °C 1006.0 hPa NNW 11.6 km/h 35.2 km/h 60 % 0.0 mm open2300-1.11 W/m2
18:12 4.7 °C -2.2 °C 1006.7 hPa NW 22 km/h 29 km/h 61 % 0.0 mm open2300-1.11 W/m2
19:12 4.2 °C -2.9 °C 1007.0 hPa WNW 46.3 km/h 46.3 km/h 60 % 0.0 mm open2300-1.11 W/m2
20:12 3.9 °C -3.2 °C 1007.3 hPa North 27.2 km/h 81.1 km/h 60 % 0.0 mm open2300-1.11 W/m2
21:12 3.4 °C -3.6 °C 1007.7 hPa North 26.7 km/h 44.1 km/h 60 % 0.0 mm open2300-1.11 W/m2
22:12 3.2 °C -3.4 °C 1008.7 hPa WNW 47.3 km/h 47.3 km/h 62 % 0.0 mm open2300-1.11 W/m2
23:12 3.1 °C -3.7 °C 1009.0 hPa WNW 28.5 km/h 36.5 km/h 61 % 0.0 mm open2300-1.11 W/m2
Observations météo à CASSIS
WU-History script by Weather Underground - 1 mb